createdAt,value
2024-01-24T00:01:35.258Z,2.95
2024-01-24T00:04:08.590Z,3.25
2024-01-24T00:06:41.840Z,4.82
2024-01-24T00:09:14.852Z,5.28
2024-01-24T00:11:47.665Z,4.45
2024-01-24T00:14:22.429Z,4.88
2024-01-24T00:16:56.843Z,4.05
2024-01-24T00:19:29.810Z,3.85
2024-01-24T00:22:02.782Z,3.35
2024-01-24T00:24:35.800Z,3.70
2024-01-24T00:27:08.587Z,5.40
2024-01-24T00:29:42.842Z,6.20
2024-01-24T00:32:15.819Z,5.15
2024-01-24T00:34:48.604Z,5.32
2024-01-24T00:37:21.713Z,7.47
2024-01-24T00:39:54.465Z,6.05
2024-01-24T00:42:27.426Z,6.65
2024-01-24T00:45:01.636Z,7.40
2024-01-24T00:47:34.579Z,6.32
2024-01-24T00:50:08.641Z,6.63
2024-01-24T00:52:41.399Z,7.03
2024-01-24T00:55:14.280Z,6.50
2024-01-24T00:57:47.291Z,8.25
2024-01-24T01:00:22.218Z,7.05
2024-01-24T01:02:55.104Z,7.78
2024-01-24T01:05:27.948Z,6.82
2024-01-24T01:08:00.742Z,6.30
2024-01-24T01:10:35.289Z,7.35
2024-01-24T01:13:08.174Z,7.97
2024-01-24T01:15:42.625Z,9.48
2024-01-24T01:18:15.552Z,8.93
2024-01-24T01:20:48.329Z,7.05
2024-01-24T01:23:21.509Z,7.97
2024-01-24T01:25:54.947Z,8.10
2024-01-24T01:28:27.714Z,7.60
2024-01-24T01:31:01.903Z,8.88
2024-01-24T01:33:35.200Z,9.30
2024-01-24T01:36:17.861Z,7.65
2024-01-24T01:38:55.858Z,8.57
2024-01-24T01:41:28.693Z,8.32
2024-01-24T01:44:01.573Z,7.07
2024-01-24T01:46:35.748Z,5.80
2024-01-24T01:49:12.065Z,6.60
2024-01-24T01:51:46.826Z,9.52
2024-01-24T01:54:20.314Z,5.30
2024-01-24T01:56:53.303Z,5.60
2024-01-24T01:59:27.548Z,6.22
2024-01-24T02:02:03.452Z,4.40
2024-01-24T02:04:36.262Z,4.78
2024-01-24T02:07:09.356Z,4.43
2024-01-24T02:09:42.360Z,6.22
2024-01-24T02:12:15.387Z,5.78
2024-01-24T02:14:48.689Z,4.70
2024-01-24T02:17:22.794Z,3.92
2024-01-24T02:19:55.753Z,4.63
2024-01-24T02:22:28.859Z,5.00
2024-01-24T02:25:03.484Z,4.90
2024-01-24T02:27:36.432Z,3.80
2024-01-24T02:30:10.321Z,6.20
2024-01-24T02:32:43.386Z,5.00
2024-01-24T02:35:16.502Z,3.95
2024-01-24T02:37:49.531Z,6.18
2024-01-24T02:40:23.914Z,5.43
2024-01-24T02:42:57.080Z,5.25
2024-01-24T02:45:29.911Z,5.93
2024-01-24T02:48:03.116Z,4.90
2024-01-24T02:50:36.013Z,4.03
2024-01-24T02:53:10.124Z,4.15
2024-01-24T02:55:44.414Z,3.95
2024-01-24T02:58:17.777Z,3.65
2024-01-24T03:00:50.549Z,3.92
2024-01-24T03:03:24.246Z,5.35
2024-01-24T03:05:57.060Z,3.00
2024-01-24T03:08:30.161Z,5.40
2024-01-24T03:11:04.273Z,4.22
2024-01-24T03:13:37.307Z,3.75
2024-01-24T03:16:10.285Z,2.78
2024-01-24T03:18:43.708Z,4.18
2024-01-24T03:21:18.831Z,2.67
2024-01-24T03:23:52.096Z,2.75
2024-01-24T03:26:26.248Z,5.00
2024-01-24T03:28:59.163Z,2.97
2024-01-24T03:31:32.051Z,1.98
2024-01-24T03:34:05.001Z,2.78
2024-01-24T03:36:38.149Z,3.13
2024-01-24T03:39:12.246Z,0.93
2024-01-24T03:41:47.970Z,4.43
2024-01-24T03:44:20.911Z,1.35
2024-01-24T03:46:53.846Z,1.35
2024-01-24T03:49:26.771Z,6.05
2024-01-24T03:51:59.863Z,9.40
2024-01-24T03:54:32.832Z,2.00
2024-01-24T03:57:07.454Z,9.35
2024-01-24T03:59:40.307Z,6.30
2024-01-24T04:02:13.572Z,3.63
2024-01-24T04:04:46.503Z,10.50
2024-01-24T04:07:19.434Z,11.68
2024-01-24T04:09:54.715Z,8.32
2024-01-24T04:12:30.091Z,6.93
2024-01-24T04:15:03.710Z,13.65
2024-01-24T04:17:36.953Z,11.55
2024-01-24T04:20:10.630Z,11.15
2024-01-24T04:22:43.763Z,11.40
2024-01-24T04:25:17.013Z,11.77
2024-01-24T04:27:51.617Z,12.05
2024-01-24T04:30:24.490Z,13.45
2024-01-24T04:32:57.775Z,6.63
2024-01-24T04:35:30.565Z,10.73
2024-01-24T04:38:03.902Z,9.52
2024-01-24T04:40:36.829Z,11.60
2024-01-24T04:43:11.033Z,10.07
2024-01-24T04:45:43.997Z,10.27
2024-01-24T04:48:17.071Z,8.00
2024-01-24T04:50:50.184Z,11.23
2024-01-24T04:53:23.899Z,13.55
2024-01-24T04:55:57.140Z,10.23
2024-01-24T04:58:31.420Z,13.93
2024-01-24T05:01:04.788Z,12.15
2024-01-24T05:03:37.830Z,10.43
2024-01-24T05:06:11.579Z,19.38
2024-01-24T05:08:46.132Z,15.88
2024-01-24T05:11:18.976Z,21.00
2024-01-24T05:13:56.186Z,15.80
2024-01-24T05:16:31.013Z,23.17
2024-01-24T05:19:03.978Z,25.80
2024-01-24T05:21:42.084Z,18.45
2024-01-24T05:24:15.138Z,27.45
2024-01-24T05:26:48.017Z,23.17
2024-01-24T05:29:23.216Z,31.63
2024-01-24T05:31:56.305Z,22.92
2024-01-24T05:34:29.398Z,27.20
2024-01-24T05:37:02.254Z,20.60
2024-01-24T05:39:35.171Z,27.40
2024-01-24T05:42:09.040Z,36.08
2024-01-24T05:44:43.283Z,22.42
2024-01-24T05:47:16.968Z,29.90
2024-01-24T05:49:50.575Z,24.02
2024-01-24T05:52:27.160Z,28.90
2024-01-24T05:55:00.274Z,27.05
2024-01-24T05:57:36.183Z,24.67
2024-01-24T06:00:15.705Z,28.17
2024-01-24T06:02:51.686Z,32.63
2024-01-24T06:05:24.598Z,23.60
2024-01-24T06:07:57.702Z,22.05
2024-01-24T06:10:30.983Z,31.27
2024-01-24T06:13:03.892Z,25.08
2024-01-24T06:15:38.704Z,31.55
2024-01-24T06:18:11.890Z,31.35
2024-01-24T06:20:45.159Z,23.35
2024-01-24T06:23:18.021Z,26.50
2024-01-24T06:25:51.300Z,22.48
2024-01-24T06:28:24.429Z,24.75
2024-01-24T06:30:59.128Z,27.13
2024-01-24T06:33:33.238Z,24.92
2024-01-24T06:36:06.532Z,23.40
2024-01-24T06:38:39.372Z,30.40
2024-01-24T06:41:14.634Z,24.13
2024-01-24T06:43:48.595Z,28.50
2024-01-24T06:46:24.217Z,15.68
2024-01-24T06:48:57.230Z,20.40
2024-01-24T06:51:30.076Z,24.48
2024-01-24T06:54:03.601Z,24.45
2024-01-24T06:56:36.979Z,23.08
2024-01-24T06:59:09.900Z,29.38
2024-01-24T07:01:44.944Z,26.60
2024-01-24T07:04:18.254Z,24.48
2024-01-24T07:06:52.558Z,27.33
2024-01-24T07:09:25.445Z,21.23
2024-01-24T07:11:58.276Z,24.42
2024-01-24T07:14:31.182Z,19.48
2024-01-24T07:17:06.430Z,21.38
2024-01-24T07:19:40.086Z,17.05
2024-01-24T07:22:13.041Z,33.47
2024-01-24T07:24:47.342Z,26.70
2024-01-24T07:27:20.617Z,42.17
2024-01-24T07:29:53.584Z,37.40
2024-01-24T07:32:29.119Z,30.02
2024-01-24T07:35:03.759Z,28.33
2024-01-24T07:37:37.190Z,25.40
2024-01-24T07:40:12.016Z,26.23
2024-01-24T07:42:47.301Z,23.80
2024-01-24T07:45:20.992Z,35.17
2024-01-24T07:47:55.571Z,30.35
2024-01-24T07:50:28.931Z,29.38
2024-01-24T07:53:01.872Z,28.50
2024-01-24T07:55:41.675Z,33.92
2024-01-24T07:58:26.424Z,34.67
2024-01-24T08:00:59.520Z,26.77
2024-01-24T08:03:34.222Z,41.97
2024-01-24T08:06:07.521Z,28.02
2024-01-24T08:08:40.560Z,28.70
2024-01-24T08:11:13.249Z,32.85
2024-01-24T08:13:46.731Z,40.65
2024-01-24T08:16:20.229Z,36.67
2024-01-24T08:18:56.567Z,35.00
2024-01-24T08:21:30.008Z,34.80
2024-01-24T08:24:02.761Z,31.88
2024-01-24T08:26:35.814Z,36.92
2024-01-24T08:29:10.674Z,38.60
2024-01-24T08:31:45.366Z,39.60
2024-01-24T08:34:20.344Z,34.25
2024-01-24T08:36:53.748Z,38.95
2024-01-24T08:39:27.007Z,38.65
2024-01-24T08:41:59.844Z,30.45
2024-01-24T08:44:32.739Z,37.83
2024-01-24T08:47:05.988Z,32.22
2024-01-24T08:49:42.030Z,41.25
2024-01-24T08:52:15.233Z,29.52
2024-01-24T08:54:48.323Z,23.33
2024-01-24T08:57:21.070Z,35.85
2024-01-24T08:59:54.269Z,47.53
2024-01-24T09:02:28.143Z,23.63
2024-01-24T09:05:02.870Z,30.60
2024-01-24T09:07:36.053Z,31.00
2024-01-24T09:10:10.130Z,40.45
2024-01-24T09:12:43.144Z,31.77
2024-01-24T09:15:16.860Z,33.10
2024-01-24T09:17:49.799Z,23.40
2024-01-24T09:20:25.078Z,33.70
2024-01-24T09:22:58.343Z,37.70
2024-01-24T09:25:31.931Z,31.67
2024-01-24T09:28:05.764Z,34.25
2024-01-24T09:30:40.450Z,35.22
2024-01-24T09:33:13.674Z,46.85
2024-01-24T09:35:48.013Z,35.58
2024-01-24T09:38:21.431Z,34.33
2024-01-24T09:40:54.589Z,42.85
2024-01-24T09:43:31.093Z,31.55
2024-01-24T09:46:07.004Z,36.15
2024-01-24T09:48:41.340Z,34.22
2024-01-24T09:51:15.728Z,28.75
2024-01-24T09:53:52.969Z,38.45
2024-01-24T09:56:27.724Z,29.83
2024-01-24T09:59:00.660Z,35.55
2024-01-24T10:01:36.298Z,27.25
2024-01-24T10:04:09.502Z,30.48
2024-01-24T10:06:45.446Z,40.97
2024-01-24T10:09:20.407Z,36.60
2024-01-24T10:11:53.486Z,38.25
2024-01-24T10:14:26.365Z,31.75
2024-01-24T10:17:00.313Z,39.40
2024-01-24T10:19:34.258Z,31.48
2024-01-24T10:22:10.969Z,36.90
2024-01-24T10:24:44.152Z,41.90
2024-01-24T10:27:17.367Z,35.42
2024-01-24T10:29:50.411Z,33.67
2024-01-24T10:32:23.656Z,29.33
2024-01-24T10:34:56.741Z,29.65
2024-01-24T10:37:31.225Z,30.45
2024-01-24T10:40:07.253Z,38.53
2024-01-24T10:42:44.266Z,39.72
2024-01-24T10:45:20.188Z,34.58
2024-01-24T10:47:53.551Z,37.22
2024-01-24T10:50:27.096Z,42.13
2024-01-24T10:53:03.388Z,38.47
2024-01-24T10:55:38.626Z,39.85
2024-01-24T10:58:12.874Z,34.85
2024-01-24T11:00:45.883Z,39.90
2024-01-24T11:03:19.626Z,34.10
2024-01-24T11:05:57.534Z,36.92
2024-01-24T11:08:43.243Z,39.95
2024-01-24T11:11:22.742Z,36.78
2024-01-24T11:13:55.673Z,38.30
2024-01-24T11:16:32.065Z,33.60
2024-01-24T11:19:20.926Z,41.22
2024-01-24T11:21:54.899Z,32.88
2024-01-24T11:24:51.524Z,37.60
2024-01-24T11:27:31.338Z,35.22
2024-01-24T11:30:18.185Z,32.50
2024-01-24T11:33:00.198Z,39.25
2024-01-24T11:35:39.479Z,34.28
2024-01-24T11:38:37.028Z,40.20
2024-01-24T11:41:27.745Z,37.38
2024-01-24T11:44:00.862Z,35.13
2024-01-24T11:46:34.389Z,38.15
2024-01-24T11:49:08.264Z,37.70
2024-01-24T11:51:41.828Z,35.70
2024-01-24T11:54:15.687Z,34.00
2024-01-24T11:56:50.067Z,26.13
2024-01-24T11:59:23.237Z,41.83
2024-01-24T12:01:56.554Z,40.40
2024-01-24T12:04:29.772Z,38.90
2024-01-24T12:07:04.283Z,37.15
2024-01-24T12:09:37.515Z,40.38
2024-01-24T12:12:13.795Z,37.45
2024-01-24T12:14:47.061Z,34.90
2024-01-24T12:17:20.407Z,44.92
2024-01-24T12:19:53.823Z,37.53
2024-01-24T12:22:27.206Z,35.28
2024-01-24T12:25:08.432Z,40.53
2024-01-24T12:27:45.387Z,35.80
2024-01-24T12:30:19.876Z,48.25
2024-01-24T12:32:58.582Z,47.70
2024-01-24T12:35:33.002Z,36.13
2024-01-24T12:38:06.941Z,39.45
2024-01-24T12:40:39.794Z,38.05
2024-01-24T12:43:14.819Z,38.25
2024-01-24T12:45:48.032Z,35.55
2024-01-24T12:48:23.557Z,45.05
2024-01-24T12:50:57.834Z,29.40
2024-01-24T12:53:30.738Z,43.38
2024-01-24T12:56:03.909Z,33.30
2024-01-24T12:58:41.226Z,41.83
2024-01-24T13:01:14.445Z,48.20
2024-01-24T13:03:47.962Z,46.80
2024-01-24T13:06:21.289Z,43.13
2024-01-24T13:08:54.161Z,39.30
2024-01-24T13:11:27.150Z,48.10
2024-01-24T13:14:01.569Z,37.03
2024-01-24T13:16:34.481Z,49.50
2024-01-24T13:19:07.438Z,38.28
2024-01-24T13:21:43.088Z,41.20
2024-01-24T13:24:16.740Z,40.25
2024-01-24T13:26:49.969Z,51.15
2024-01-24T13:29:24.289Z,55.03
2024-01-24T13:31:57.656Z,58.83
2024-01-24T13:34:31.192Z,42.05
2024-01-24T13:37:04.348Z,40.63
2024-01-24T13:39:37.633Z,43.53
2024-01-24T13:42:11.022Z,47.58
2024-01-24T13:44:45.167Z,50.30
2024-01-24T13:47:18.063Z,44.75
2024-01-24T13:49:51.489Z,46.38
2024-01-24T13:52:25.392Z,40.60
2024-01-24T13:54:58.814Z,55.70
2024-01-24T13:57:31.998Z,52.22
2024-01-24T14:00:11.384Z,47.05
2024-01-24T14:02:44.670Z,45.13
2024-01-24T14:05:18.487Z,38.72
2024-01-24T14:07:52.471Z,53.00
2024-01-24T14:10:25.664Z,38.03
2024-01-24T14:12:58.643Z,53.05
2024-01-24T14:15:36.925Z,42.58
2024-01-24T14:18:12.922Z,52.05
2024-01-24T14:20:45.880Z,46.97
2024-01-24T14:23:18.739Z,44.45
2024-01-24T14:25:51.676Z,46.30
2024-01-24T14:28:24.690Z,44.70
2024-01-24T14:31:01.184Z,48.90
2024-01-24T14:33:35.288Z,46.80
2024-01-24T14:36:09.066Z,57.95
2024-01-24T14:38:41.862Z,57.10
2024-01-24T14:41:14.756Z,40.45
2024-01-24T14:43:47.551Z,54.17
2024-01-24T14:46:22.936Z,44.75
2024-01-24T14:48:55.895Z,48.63
2024-01-24T14:51:28.895Z,50.58
2024-01-24T14:54:01.981Z,42.72
2024-01-24T14:56:34.897Z,37.20
2024-01-24T14:59:07.739Z,53.30
2024-01-24T15:01:42.618Z,47.05
2024-01-24T15:04:15.969Z,46.30
2024-01-24T15:06:49.585Z,63.05
2024-01-24T15:09:22.451Z,50.25
2024-01-24T15:11:55.723Z,60.95
2024-01-24T15:14:28.585Z,49.45
2024-01-24T15:17:03.238Z,52.17
2024-01-24T15:19:36.219Z,47.92
2024-01-24T15:22:09.802Z,44.60
2024-01-24T15:24:42.888Z,40.13
2024-01-24T15:27:15.692Z,45.78
2024-01-24T15:29:48.824Z,46.03
2024-01-24T15:32:24.185Z,48.35
2024-01-24T15:34:57.746Z,56.00
2024-01-24T15:37:30.913Z,56.15
2024-01-24T15:40:08.335Z,45.53
2024-01-24T15:42:45.489Z,69.68
2024-01-24T15:45:22.513Z,40.83
2024-01-24T15:47:57.343Z,46.47
2024-01-24T15:50:30.661Z,43.95
2024-01-24T15:53:04.077Z,53.78
2024-01-24T15:55:37.062Z,47.65
2024-01-24T15:58:10.014Z,44.28
2024-01-24T16:00:43.063Z,43.95
2024-01-24T16:03:20.432Z,57.55
2024-01-24T16:05:53.398Z,49.97
2024-01-24T16:08:26.356Z,49.53
2024-01-24T16:11:00.762Z,55.50
2024-01-24T16:13:34.120Z,77.00
2024-01-24T16:16:08.374Z,49.30
2024-01-24T16:18:44.332Z,51.95
2024-01-24T16:21:17.207Z,45.90
2024-01-24T16:23:50.144Z,52.95
2024-01-24T16:26:23.141Z,55.03
2024-01-24T16:28:56.062Z,55.95
2024-01-24T16:31:29.459Z,44.70
2024-01-24T16:34:04.099Z,54.47
2024-01-24T16:36:37.462Z,32.65
2024-01-24T16:39:10.794Z,48.08
2024-01-24T16:41:43.772Z,51.42
2024-01-24T16:44:20.136Z,45.67
2024-01-24T16:46:53.183Z,46.33
2024-01-24T16:49:27.625Z,41.72
2024-01-24T16:52:00.604Z,47.35
2024-01-24T16:54:33.509Z,39.25
2024-01-24T16:57:06.288Z,50.70
2024-01-24T16:59:39.269Z,48.30
2024-01-24T17:02:13.039Z,50.25
2024-01-24T17:04:47.380Z,50.20
2024-01-24T17:07:21.479Z,47.55
2024-01-24T17:09:54.393Z,64.72
2024-01-24T17:12:29.167Z,52.83
2024-01-24T17:15:02.167Z,42.25
2024-01-24T17:17:34.849Z,54.97
2024-01-24T17:20:10.363Z,43.45
2024-01-24T17:22:43.364Z,42.58
2024-01-24T17:25:18.908Z,41.38
2024-01-24T17:27:51.813Z,46.90
2024-01-24T17:30:24.778Z,46.65
2024-01-24T17:32:59.365Z,45.42
2024-01-24T17:35:37.227Z,51.78
2024-01-24T17:38:11.032Z,45.28
2024-01-24T17:40:43.887Z,53.42
2024-01-24T17:43:17.580Z,41.70
2024-01-24T17:45:50.776Z,43.70
2024-01-24T17:48:23.906Z,39.55
2024-01-24T17:50:58.136Z,56.33
2024-01-24T17:53:33.539Z,57.25
2024-01-24T17:56:07.327Z,41.63
2024-01-24T17:58:40.257Z,54.05
2024-01-24T18:01:13.345Z,57.85
2024-01-24T18:03:46.633Z,50.95
2024-01-24T18:06:20.965Z,43.92
2024-01-24T18:08:53.911Z,52.78
2024-01-24T18:11:27.632Z,54.55
2024-01-24T18:14:00.430Z,54.95
2024-01-24T18:16:33.333Z,48.65
2024-01-24T18:19:06.326Z,47.42
2024-01-24T18:21:41.142Z,37.88
2024-01-24T18:24:14.555Z,46.38
2024-01-24T18:26:47.453Z,45.35
2024-01-24T18:29:20.438Z,49.72
2024-01-24T18:31:53.287Z,49.90
2024-01-24T18:34:27.756Z,48.05
2024-01-24T18:37:02.301Z,46.95
2024-01-24T18:39:35.507Z,41.40
2024-01-24T18:42:09.807Z,54.33
2024-01-24T18:44:43.944Z,46.67
2024-01-24T18:47:16.901Z,47.05
2024-01-24T18:49:50.025Z,54.28
2024-01-24T18:52:24.576Z,45.17
2024-01-24T18:54:57.515Z,50.40
2024-01-24T18:57:30.500Z,44.92
2024-01-24T19:00:05.769Z,49.65
2024-01-24T19:02:38.903Z,43.25
2024-01-24T19:05:19.209Z,51.80
2024-01-24T19:07:57.835Z,56.35
2024-01-24T19:10:31.129Z,43.30
2024-01-24T19:13:04.344Z,43.33
2024-01-24T19:15:37.532Z,41.67
2024-01-24T19:18:14.276Z,44.72
2024-01-24T19:20:50.285Z,49.63
2024-01-24T19:23:25.935Z,49.78
2024-01-24T19:25:58.733Z,40.67
2024-01-24T19:28:31.578Z,56.70
2024-01-24T19:31:05.137Z,53.72
2024-01-24T19:33:38.828Z,45.10
2024-01-24T19:36:13.792Z,38.60
2024-01-24T19:38:47.966Z,53.05
2024-01-24T19:41:22.420Z,38.60
2024-01-24T19:43:55.663Z,47.90
2024-01-24T19:46:28.679Z,43.38
2024-01-24T19:49:01.910Z,43.00
2024-01-24T19:51:36.950Z,52.55
2024-01-24T19:54:11.338Z,43.78
2024-01-24T19:56:45.181Z,49.78
2024-01-24T19:59:20.282Z,49.50
2024-01-24T20:01:53.627Z,51.55
2024-01-24T20:04:26.774Z,52.78
2024-01-24T20:07:00.286Z,54.20
2024-01-24T20:09:35.083Z,57.85
2024-01-24T20:12:08.776Z,48.47
2024-01-24T20:14:41.811Z,59.53
2024-01-24T20:17:16.459Z,54.35
2024-01-24T20:19:53.187Z,47.85
2024-01-24T20:22:27.164Z,54.95
2024-01-24T20:25:01.815Z,49.33
2024-01-24T20:27:35.330Z,55.72
2024-01-24T20:30:09.340Z,43.42
2024-01-24T20:32:48.901Z,44.53
2024-01-24T20:35:30.378Z,40.70
2024-01-24T20:38:03.736Z,54.22
2024-01-24T20:40:38.124Z,49.00
2024-01-24T20:43:12.571Z,52.00
2024-01-24T20:45:45.536Z,46.83
2024-01-24T20:48:18.471Z,43.15
2024-01-24T20:50:51.552Z,43.55
2024-01-24T20:53:24.673Z,47.92
2024-01-24T20:56:03.162Z,48.10
2024-01-24T20:58:36.230Z,60.53
2024-01-24T21:01:09.358Z,56.92
2024-01-24T21:03:44.486Z,47.40
2024-01-24T21:06:18.005Z,54.38
2024-01-24T21:08:51.239Z,46.13
2024-01-24T21:11:25.660Z,56.65
2024-01-24T21:13:59.046Z,44.53
2024-01-24T21:16:32.344Z,53.85
2024-01-24T21:19:05.380Z,44.47
2024-01-24T21:21:38.610Z,48.92
2024-01-24T21:24:13.387Z,43.97
2024-01-24T21:26:49.050Z,53.67
2024-01-24T21:29:22.098Z,50.90
2024-01-24T21:31:55.519Z,43.25
2024-01-24T21:34:30.280Z,47.22
2024-01-24T21:37:06.307Z,49.90
2024-01-24T21:39:39.528Z,48.30
2024-01-24T21:42:13.743Z,45.78
2024-01-24T21:44:46.648Z,43.75
2024-01-24T21:47:20.060Z,40.00
2024-01-24T21:49:53.490Z,43.90
2024-01-24T21:52:26.429Z,45.25
2024-01-24T21:54:59.442Z,39.35
2024-01-24T21:57:34.041Z,52.35
2024-01-24T22:00:09.236Z,53.20
2024-01-24T22:02:42.261Z,51.72
2024-01-24T22:05:15.095Z,53.53
2024-01-24T22:07:50.807Z,41.03
2024-01-24T22:10:24.587Z,29.27
2024-01-24T22:13:00.547Z,40.13
2024-01-24T22:15:33.708Z,45.45
2024-01-24T22:18:08.790Z,50.47
2024-01-24T22:20:42.760Z,50.05
2024-01-24T22:23:15.921Z,42.80
2024-01-24T22:25:48.790Z,47.38
2024-01-24T22:28:23.206Z,44.83
2024-01-24T22:30:56.798Z,37.50
2024-01-24T22:33:29.888Z,35.08
2024-01-24T22:36:02.957Z,35.00
2024-01-24T22:38:35.818Z,46.03
2024-01-24T22:41:08.857Z,57.42
2024-01-24T22:43:43.328Z,40.90
2024-01-24T22:46:16.386Z,35.78
2024-01-24T22:48:50.026Z,44.38
2024-01-24T22:51:23.899Z,37.72
2024-01-24T22:53:56.919Z,48.25
2024-01-24T22:56:30.082Z,44.30
2024-01-24T22:59:04.220Z,42.25
2024-01-24T23:01:37.209Z,53.22
2024-01-24T23:04:10.241Z,44.72
2024-01-24T23:06:43.244Z,43.88
2024-01-24T23:09:16.496Z,45.28
2024-01-24T23:11:49.437Z,37.85
2024-01-24T23:14:25.695Z,39.00
2024-01-24T23:16:58.825Z,51.33
2024-01-24T23:19:31.904Z,52.88
2024-01-24T23:22:05.960Z,55.80
2024-01-24T23:24:39.254Z,49.35
2024-01-24T23:27:12.522Z,44.05
2024-01-24T23:29:46.788Z,53.88
2024-01-24T23:32:21.288Z,36.08
2024-01-24T23:34:55.322Z,45.42
2024-01-24T23:37:28.296Z,48.60
2024-01-24T23:40:01.369Z,48.80
2024-01-24T23:42:34.426Z,47.25
2024-01-24T23:45:09.893Z,54.25
2024-01-24T23:47:43.443Z,52.03
2024-01-24T23:50:16.752Z,46.88
2024-01-24T23:52:49.978Z,48.03
2024-01-24T23:55:23.445Z,47.08
2024-01-24T23:57:56.790Z,39.45
